Time,TemperatureF,DewpointF,PressureIn,WindDirection,WindDirectionDegrees,WindSpeedMPH,WindSpeedGustMPH,Humidity,HourlyPrecipIn,Conditions,Clouds,dailyrainin,SoftwareType,DateUTC
2013-04-17 00:00:00,41.8,39.9,30.40,NW,318,0.0,0.0,93,0.00,,,0.00,Wunderground v.1.15,2013-04-17 07:00:00,
2013-04-17 00:10:00,41.8,40.2,30.41,NW,318,0.0,0.0,94,0.00,,,0.00,Wunderground v.1.15,2013-04-17 07:10:00,
2013-04-17 00:20:00,42.0,40.4,30.41,NW,318,0.0,1.0,94,0.00,,,0.00,Wunderground v.1.15,2013-04-17 07:20:00,
2013-04-17 00:30:00,42.0,40.4,30.41,NW,318,0.0,0.0,94,0.00,,,0.00,Wunderground v.1.15,2013-04-17 07:30:00,
2013-04-17 00:40:00,42.0,40.4,30.41,NW,318,0.0,0.0,94,0.00,,,0.00,Wunderground v.1.15,2013-04-17 07:40:00,
2013-04-17 00:45:00,42.0,40.4,30.41,NW,318,0.0,0.0,94,0.00,,,0.00,Wunderground v.1.15,2013-04-17 07:45:00,
2013-04-17 00:50:00,41.9,40.3,30.41,NW,318,0.0,0.0,94,0.00,,,0.00,Wunderground v.1.15,2013-04-17 07:50:00,
2013-04-17 01:00:00,42.0,40.7,30.41,NW,318,0.0,0.0,95,0.00,,,0.00,Wunderground v.1.15,2013-04-17 08:00:00,
2013-04-17 01:10:00,41.8,40.5,30.41,NW,318,0.0,0.0,95,0.00,,,0.00,Wunderground v.1.15,2013-04-17 08:10:00,
2013-04-17 01:20:00,41.7,40.1,30.41,NW,318,0.0,0.0,94,0.00,,,0.00,Wunderground v.1.15,2013-04-17 08:20:00,
2013-04-17 01:25:00,41.6,40.0,30.41,NW,318,0.0,0.0,94,0.00,,,0.00,Wunderground v.1.15,2013-04-17 08:25:00,
2013-04-17 01:35:00,41.4,40.1,30.40,NW,318,0.0,0.0,95,0.00,,,0.00,Wunderground v.1.15,2013-04-17 08:35:00,
2013-04-17 01:45:00,41.1,39.5,30.41,NW,318,0.0,0.0,94,0.00,,,0.00,Wunderground v.1.15,2013-04-17 08:45:00,
2013-04-17 01:55:00,41.0,39.7,30.41,NW,318,0.0,0.0,95,0.00,,,0.00,Wunderground v.1.15,2013-04-17 08:55:00,
2013-04-17 02:00:00,40.9,39.6,30.41,NW,318,0.0,0.0,95,0.00,,,0.00,Wunderground v.1.15,2013-04-17 09:00:00,
2013-04-17 02:10:00,40.9,39.8,30.41,NW,318,0.0,0.0,96,0.00,,,0.00,Wunderground v.1.15,2013-04-17 09:10:00,
2013-04-17 02:20:00,40.9,39.8,30.41,NW,318,0.0,0.0,96,0.00,,,0.00,Wunderground v.1.15,2013-04-17 09:20:00,
2013-04-17 02:30:00,41.0,39.9,30.41,NW,318,0.0,0.0,96,0.00,,,0.00,Wunderground v.1.15,2013-04-17 09:30:00,
2013-04-17 02:40:00,41.1,40.0,30.41,NW,318,0.0,0.0,96,0.00,,,0.00,Wunderground v.1.15,2013-04-17 09:40:00,
2013-04-17 02:45:00,41.2,40.1,30.41,NW,318,0.0,0.0,96,0.00,,,0.00,Wunderground v.1.15,2013-04-17 09:45:00,
2013-04-17 02:55:00,41.3,40.5,30.41,NW,318,0.0,0.0,97,0.00,,,0.00,Wunderground v.1.15,2013-04-17 09:55:00,
2013-04-17 03:00:00,41.4,40.3,30.41,NW,318,0.0,0.0,96,0.00,,,0.00,Wunderground v.1.15,2013-04-17 10:00:00,
2013-04-17 03:10:00,41.5,40.4,30.41,NW,318,0.0,0.0,96,0.00,,,0.00,Wunderground v.1.15,2013-04-17 10:10:00,
2013-04-17 03:20:00,41.6,40.5,30.41,NW,318,0.0,0.0,96,0.00,,,0.00,Wunderground v.1.15,2013-04-17 10:20:00,
2013-04-17 03:30:00,41.6,40.5,30.41,NW,318,0.0,0.0,96,0.00,,,0.00,Wunderground v.1.15,2013-04-17 10:30:00,
2013-04-17 03:40:00,41.6,40.5,30.41,NW,318,0.0,0.0,96,0.00,,,0.00,Wunderground v.1.15,2013-04-17 10:40:00,
2013-04-17 03:50:00,41.7,40.6,30.41,NW,318,0.0,0.0,96,0.00,,,0.00,Wunderground v.1.15,2013-04-17 10:50:00,
2013-04-17 04:00:00,41.8,40.7,30.41,NW,318,0.0,0.0,96,0.00,,,0.00,Wunderground v.1.15,2013-04-17 11:00:00,
2013-04-17 04:10:00,41.9,40.8,30.41,NW,318,0.0,0.0,96,0.00,,,0.00,Wunderground v.1.15,2013-04-17 11:10:00,
2013-04-17 04:20:00,41.9,40.8,30.42,NW,318,0.0,0.0,96,0.00,,,0.00,Wunderground v.1.15,2013-04-17 11:20:00,
2013-04-17 04:30:00,41.9,40.8,30.42,NW,318,0.0,0.0,96,0.00,,,0.00,Wunderground v.1.15,2013-04-17 11:30:00,
2013-04-17 04:35:00,41.9,40.8,30.42,NW,318,0.0,0.0,96,0.00,,,0.00,Wunderground v.1.15,2013-04-17 11:35:00,
2013-04-17 04:45:00,41.9,40.8,30.42,NW,318,0.0,0.0,96,0.00,,,0.00,Wunderground v.1.15,2013-04-17 11:45:00,
2013-04-17 04:55:00,41.8,40.7,30.42,NW,318,0.0,0.0,96,0.00,,,0.00,Wunderground v.1.15,2013-04-17 11:55:00,
2013-04-17 05:00:00,41.6,40.5,30.42,NW,318,0.0,0.0,96,0.00,,,0.00,Wunderground v.1.15,2013-04-17 12:00:00,
2013-04-17 05:10:00,41.6,40.5,30.43,NW,318,0.0,0.0,96,0.00,,,0.00,Wunderground v.1.15,2013-04-17 12:10:00,
2013-04-17 05:20:00,41.5,40.4,30.43,NW,318,0.0,0.0,96,0.00,,,0.00,Wunderground v.1.15,2013-04-17 12:20:00,
2013-04-17 05:30:00,41.5,40.4,30.43,NW,318,0.0,0.0,96,0.00,,,0.00,Wunderground v.1.15,2013-04-17 12:30:00,
2013-04-17 05:40:00,41.5,40.4,30.43,NW,318,0.0,0.0,96,0.00,,,0.00,Wunderground v.1.15,2013-04-17 12:40:00,
2013-04-17 05:45:00,41.5,40.4,30.43,NW,318,0.0,0.0,96,0.00,,,0.00,Wunderground v.1.15,2013-04-17 12:45:00,
2013-04-17 05:50:00,41.5,40.4,30.43,NW,318,0.0,0.0,96,0.00,,,0.00,Wunderground v.1.15,2013-04-17 12:50:00,
2013-04-17 06:00:00,41.5,40.4,30.43,NW,318,0.0,0.0,96,0.00,,,0.00,Wunderground v.1.15,2013-04-17 13:00:00,
2013-04-17 06:10:00,41.5,40.4,30.43,NW,318,0.0,0.0,96,0.00,,,0.00,Wunderground v.1.15,2013-04-17 13:10:00,
2013-04-17 06:20:00,41.5,40.4,30.44,NW,318,0.0,0.0,96,0.00,,,0.00,Wunderground v.1.15,2013-04-17 13:20:00,
2013-04-17 06:30:00,41.5,40.4,30.44,NW,318,0.0,0.0,96,0.00,,,0.00,Wunderground v.1.15,2013-04-17 13:30:00,
2013-04-17 06:35:00,41.4,40.3,30.44,NW,318,0.0,0.0,96,0.00,,,0.00,Wunderground v.1.15,2013-04-17 13:35:00,
2013-04-17 06:45:00,41.3,40.2,30.44,SE,134,0.0,1.0,96,0.00,,,0.00,Wunderground v.1.15,2013-04-17 13:45:00,
2013-04-17 06:55:00,41.2,40.1,30.45,SE,134,0.0,1.0,96,0.00,,,0.00,Wunderground v.1.15,2013-04-17 13:55:00,
2013-04-17 07:00:00,41.2,40.1,30.45,SE,134,0.0,0.0,96,0.00,,,0.00,Wunderground v.1.15,2013-04-17 14:00:00,
2013-04-17 07:10:00,41.2,40.1,30.46,SE,134,0.0,0.0,96,0.00,,,0.00,Wunderground v.1.15,2013-04-17 14:10:00,
2013-04-17 07:20:00,41.2,39.9,30.46,SE,138,0.0,0.0,95,0.00,,,0.00,Wunderground v.1.15,2013-04-17 14:20:00,
2013-04-17 07:30:00,41.3,40.0,30.46,SE,138,0.0,0.0,95,0.00,,,0.00,Wunderground v.1.15,2013-04-17 14:30:00,
2013-04-17 07:40:00,41.5,40.2,30.47,SE,138,0.0,0.0,95,0.00,,,0.00,Wunderground v.1.15,2013-04-17 14:40:00,
2013-04-17 07:50:00,41.7,40.4,30.47,SE,138,0.0,0.0,95,0.00,,,0.00,Wunderground v.1.15,2013-04-17 14:50:00,
2013-04-17 08:00:00,42.0,40.7,30.48,SE,138,0.0,0.0,95,0.00,,,0.00,Wunderground v.1.15,2013-04-17 15:00:00,
2013-04-17 08:10:00,42.4,40.8,30.48,SE,138,0.0,0.0,94,0.00,,,0.00,Wunderground v.1.15,2013-04-17 15:10:00,
2013-04-17 08:20:00,43.7,41.5,30.48,SE,146,0.0,0.0,92,0.00,,,0.00,Wunderground v.1.15,2013-04-17 15:20:00,
2013-04-17 08:30:00,46.3,42.3,30.48,ESE,120,0.0,1.0,86,0.00,,,0.00,Wunderground v.1.15,2013-04-17 15:30:00,
2013-04-17 08:40:00,47.3,43.0,30.48,North,360,0.0,0.0,85,0.00,,,0.00,Wunderground v.1.15,2013-04-17 15:40:00,
2013-04-17 08:50:00,48.1,43.8,30.48,NNW,343,0.0,1.0,85,0.00,,,0.00,Wunderground v.1.15,2013-04-17 15:50:00,
2013-04-17 09:00:00,48.0,42.8,30.48,NNE,25,0.0,0.0,82,0.00,,,0.00,Wunderground v.1.15,2013-04-17 16:00:00,
2013-04-17 09:10:00,47.8,42.6,30.48,NE,50,0.0,1.0,82,0.00,,,0.00,Wunderground v.1.15,2013-04-17 16:10:00,
2013-04-17 09:20:00,48.3,42.4,30.48,North,355,1.0,2.0,80,0.00,,,0.00,Wunderground v.1.15,2013-04-17 16:20:00,
2013-04-17 09:25:00,48.4,41.9,30.48,North,10,1.0,2.0,78,0.00,,,0.00,Wunderground v.1.15,2013-04-17 16:25:00,
2013-04-17 09:35:00,49.0,42.1,30.48,North,5,1.0,2.0,77,0.00,,,0.00,Wunderground v.1.15,2013-04-17 16:35:00,
2013-04-17 09:45:00,49.5,42.6,30.48,NNE,29,0.0,1.0,77,0.00,,,0.00,Wunderground v.1.15,2013-04-17 16:45:00,
2013-04-17 09:55:00,50.5,43.6,30.48,WNW,289,1.0,3.0,77,0.00,,,0.00,Wunderground v.1.15,2013-04-17 16:55:00,
2013-04-17 10:00:00,50.2,42.9,30.48,NE,35,1.0,1.0,76,0.00,,,0.00,Wunderground v.1.15,2013-04-17 17:00:00,
2013-04-17 10:10:00,50.5,42.9,30.48,WSW,251,1.0,1.0,75,0.00,,,0.00,Wunderground v.1.15,2013-04-17 17:10:00,
2013-04-17 10:15:00,51.0,43.7,30.48,SSE,148,1.0,1.0,76,0.00,,,0.00,Wunderground v.1.15,2013-04-17 17:15:00,
2013-04-17 10:25:00,51.7,43.0,30.48,North,11,0.0,2.0,72,0.00,,,0.00,Wunderground v.1.15,2013-04-17 17:25:00,
2013-04-17 10:35:00,52.1,41.9,30.48,NW,325,2.0,2.0,68,0.00,,,0.00,Wunderground v.1.15,2013-04-17 17:35:00,
2013-04-17 10:40:00,51.6,41.8,30.48,NNE,13,1.0,1.0,69,0.00,,,0.00,Wunderground v.1.15,2013-04-17 17:40:00,
2013-04-17 10:50:00,50.8,41.4,30.48,WNW,300,1.0,2.0,70,0.00,,,0.00,Wunderground v.1.15,2013-04-17 17:50:00,
2013-04-17 10:55:00,50.9,41.5,30.48,NNW,346,1.0,2.0,70,0.00,,,0.00,Wunderground v.1.15,2013-04-17 17:55:00,
2013-04-17 11:00:00,51.0,41.9,30.48,West,270,1.0,3.0,71,0.00,,,0.00,Wunderground v.1.15,2013-04-17 18:00:00,
2013-04-17 11:10:00,51.3,42.9,30.48,NW,308,1.0,4.0,73,0.00,,,0.00,Wunderground v.1.15,2013-04-17 18:10:00,
2013-04-17 11:20:00,52.9,43.7,30.48,NW,325,1.0,3.0,71,0.00,,,0.00,Wunderground v.1.15,2013-04-17 18:20:00,
2013-04-17 11:30:00,53.4,43.1,30.48,NNW,331,2.0,2.0,68,0.00,,,0.00,Wunderground v.1.15,2013-04-17 18:30:00,
2013-04-17 11:35:00,53.7,43.4,30.48,WNW,299,2.0,2.0,68,0.00,,,0.00,Wunderground v.1.15,2013-04-17 18:35:00,
2013-04-17 11:45:00,54.9,44.1,30.48,North,9,1.0,4.0,67,0.00,,,0.00,Wunderground v.1.15,2013-04-17 18:45:00,
2013-04-17 11:55:00,55.1,43.9,30.47,WSW,252,2.0,4.0,66,0.00,,,0.00,Wunderground v.1.15,2013-04-17 18:55:00,
2013-04-17 12:00:00,55.4,43.8,30.48,West,267,2.0,3.0,65,0.00,,,0.00,Wunderground v.1.15,2013-04-17 19:00:00,
2013-04-17 12:10:00,56.1,42.8,30.47,West,265,2.0,2.0,61,0.00,,,0.00,Wunderground v.1.15,2013-04-17 19:10:00,
2013-04-17 12:20:00,56.7,45.5,30.47,NNW,344,1.0,1.0,66,0.00,,,0.00,Wunderground v.1.15,2013-04-17 19:20:00,
2013-04-17 12:30:00,56.3,42.6,30.47,WNW,292,3.0,3.0,60,0.00,,,0.00,Wunderground v.1.15,2013-04-17 19:30:00,
2013-04-17 12:35:00,56.6,45.8,30.47,NE,41,3.0,3.0,67,0.00,,,0.00,Wunderground v.1.15,2013-04-17 19:35:00,
2013-04-17 12:45:00,56.5,43.2,30.47,West,266,3.0,5.0,61,0.00,,,0.00,Wunderground v.1.15,2013-04-17 19:45:00,
2013-04-17 12:55:00,57.0,43.2,30.46,WSW,244,4.0,4.0,60,0.00,,,0.00,Wunderground v.1.15,2013-04-17 19:55:00,
2013-04-17 13:00:00,57.0,41.9,30.46,WSW,248,4.0,4.0,57,0.00,,,0.00,Wunderground v.1.15,2013-04-17 20:00:00,
2013-04-17 13:10:00,56.9,43.2,30.46,West,269,3.0,4.0,60,0.00,,,0.00,Wunderground v.1.15,2013-04-17 20:10:00,
2013-04-17 13:15:00,57.0,43.2,30.46,NW,304,2.0,4.0,60,0.00,,,0.00,Wunderground v.1.15,2013-04-17 20:15:00,
2013-04-17 13:25:00,58.2,43.5,30.45,WNW,288,3.0,3.0,58,0.00,,,0.00,Wunderground v.1.15,2013-04-17 20:25:00,
2013-04-17 13:35:00,58.7,43.5,30.44,WNW,300,4.0,5.0,57,0.00,,,0.00,Wunderground v.1.15,2013-04-17 20:35:00,
2013-04-17 13:40:00,58.6,43.4,30.45,NNE,15,4.0,4.0,57,0.00,,,0.00,Wunderground v.1.15,2013-04-17 20:40:00,
2013-04-17 13:50:00,58.2,43.0,30.45,West,275,3.0,3.0,57,0.00,,,0.00,Wunderground v.1.15,2013-04-17 20:50:00,
2013-04-17 14:00:00,58.8,44.9,30.44,South,186,2.0,2.0,60,0.00,,,0.00,Wunderground v.1.15,2013-04-17 21:00:00,
2013-04-17 14:10:00,58.7,45.3,30.45,NNW,337,3.0,3.0,61,0.00,,,0.00,Wunderground v.1.15,2013-04-17 21:10:00,
2013-04-17 14:15:00,58.3,45.3,30.44,NNW,346,4.0,4.0,62,0.00,,,0.00,Wunderground v.1.15,2013-04-17 21:15:00,
2013-04-17 14:25:00,57.5,43.7,30.44,WNW,296,5.0,10.0,60,0.00,,,0.00,Wunderground v.1.15,2013-04-17 21:25:00,
2013-04-17 14:35:00,56.7,45.5,30.44,North,360,3.0,4.0,66,0.00,,,0.00,Wunderground v.1.15,2013-04-17 21:35:00,
2013-04-17 14:40:00,56.3,45.1,30.44,NW,323,3.0,4.0,66,0.00,,,0.00,Wunderground v.1.15,2013-04-17 21:40:00,
2013-04-17 14:50:00,57.6,47.9,30.44,West,275,3.0,6.0,70,0.00,,,0.00,Wunderground v.1.15,2013-04-17 21:50:00,
2013-04-17 14:55:00,57.1,46.6,30.44,NNE,15,2.0,6.0,68,0.00,,,0.00,Wunderground v.1.15,2013-04-17 21:55:00,
2013-04-17 15:00:00,56.3,47.0,30.44,West,277,3.0,3.0,71,0.00,,,0.00,Wunderground v.1.15,2013-04-17 22:00:00,
2013-04-17 15:10:00,56.8,47.1,30.44,North,360,4.0,4.0,70,0.00,,,0.00,Wunderground v.1.15,2013-04-17 22:10:00,
2013-04-17 15:20:00,59.2,48.2,30.44,NW,311,3.0,3.0,67,0.00,,,0.00,Wunderground v.1.15,2013-04-17 22:20:00,
2013-04-17 15:30:00,58.6,46.5,30.44,North,355,3.0,4.0,64,0.00,,,0.00,Wunderground v.1.15,2013-04-17 22:30:00,
2013-04-17 15:40:00,57.2,46.3,30.44,NNW,336,3.0,3.0,67,0.00,,,0.00,Wunderground v.1.15,2013-04-17 22:40:00,
2013-04-17 15:50:00,56.9,46.8,30.44,WNW,294,5.0,5.0,69,0.00,,,0.00,Wunderground v.1.15,2013-04-17 22:50:00,
2013-04-17 16:00:00,57.4,47.7,30.43,North,5,3.0,3.0,70,0.00,,,0.00,Wunderground v.1.15,2013-04-17 23:00:00,
2013-04-17 16:10:00,57.0,47.3,30.43,North,355,2.0,2.0,70,0.00,,,0.00,Wunderground v.1.15,2013-04-17 23:10:00,
2013-04-17 16:20:00,57.2,46.7,30.43,North,360,4.0,7.0,68,0.00,,,0.00,Wunderground v.1.15,2013-04-17 23:20:00,
2013-04-17 16:25:00,57.3,46.8,30.43,ENE,62,4.0,7.0,68,0.00,,,0.00,Wunderground v.1.15,2013-04-17 23:25:00,
2013-04-17 16:35:00,56.4,46.0,30.43,NW,318,5.0,5.0,68,0.00,,,0.00,Wunderground v.1.15,2013-04-17 23:35:00,
2013-04-17 16:40:00,56.3,45.5,30.43,NW,309,5.0,5.0,67,0.00,,,0.00,Wunderground v.1.15,2013-04-17 23:40:00,
2013-04-17 16:50:00,56.5,46.4,30.42,NW,320,3.0,3.0,69,0.00,,,0.00,Wunderground v.1.15,2013-04-17 23:50:00,
2013-04-17 17:00:00,55.6,45.2,30.43,West,272,5.0,5.0,68,0.00,,,0.00,Wunderground v.1.15,2013-04-18 00:00:00,
2013-04-17 17:10:00,54.8,45.2,30.43,WNW,302,6.0,6.0,70,0.00,,,0.00,Wunderground v.1.15,2013-04-18 00:10:00,
2013-04-17 17:20:00,54.2,44.6,30.42,West,262,5.0,5.0,70,0.00,,,0.00,Wunderground v.1.15,2013-04-18 00:20:00,
2013-04-17 17:30:00,53.9,45.1,30.43,NNW,348,5.0,6.0,72,0.00,,,0.00,Wunderground v.1.15,2013-04-18 00:30:00,
2013-04-17 17:40:00,53.5,44.7,30.43,SW,229,5.0,5.0,72,0.00,,,0.00,Wunderground v.1.15,2013-04-18 00:40:00,
2013-04-17 17:50:00,52.6,44.5,30.43,WNW,283,4.0,9.0,74,0.00,,,0.00,Wunderground v.1.15,2013-04-18 00:50:00,
2013-04-17 17:55:00,52.4,44.7,30.43,NW,306,5.0,9.0,75,0.00,,,0.00,Wunderground v.1.15,2013-04-18 00:55:00,
2013-04-17 18:00:00,52.2,45.2,30.43,WNW,296,5.0,5.0,77,0.00,,,0.00,Wunderground v.1.15,2013-04-18 01:00:00,
2013-04-17 18:10:00,51.6,45.0,30.44,WNW,286,5.0,7.0,78,0.00,,,0.00,Wunderground v.1.15,2013-04-18 01:10:00,
2013-04-17 18:20:00,51.0,44.0,30.44,WNW,295,5.0,5.0,77,0.00,,,0.00,Wunderground v.1.15,2013-04-18 01:20:00,
2013-04-17 18:25:00,50.8,44.2,30.44,NW,319,4.0,5.0,78,0.00,,,0.00,Wunderground v.1.15,2013-04-18 01:25:00,
2013-04-17 18:35:00,50.3,44.0,30.45,WNW,302,5.0,16.0,79,0.00,,,0.00,Wunderground v.1.15,2013-04-18 01:35:00,
2013-04-17 18:45:00,49.9,43.6,30.44,WNW,289,4.0,5.0,79,0.00,,,0.00,Wunderground v.1.15,2013-04-18 01:45:00,
2013-04-17 18:55:00,49.4,43.5,30.44,WNW,284,5.0,8.0,80,0.00,,,0.00,Wunderground v.1.15,2013-04-18 01:55:00,
2013-04-17 19:00:00,49.2,43.6,30.44,North,355,6.0,6.0,81,0.00,,,0.00,Wunderground v.1.15,2013-04-18 02:00:00,
2013-04-17 19:10:00,48.7,43.8,30.45,North,360,4.0,4.0,83,0.00,,,0.00,Wunderground v.1.15,2013-04-18 02:10:00,
2013-04-17 19:20:00,48.3,43.1,30.45,WSW,255,4.0,6.0,82,0.00,,,0.00,Wunderground v.1.15,2013-04-18 02:20:00,
2013-04-17 19:30:00,47.9,43.0,30.45,West,277,4.0,4.0,83,0.00,,,0.00,Wunderground v.1.15,2013-04-18 02:30:00,
2013-04-17 19:40:00,47.4,43.1,30.45,NW,309,2.0,2.0,85,0.00,,,0.00,Wunderground v.1.15,2013-04-18 02:40:00,
2013-04-17 19:50:00,47.2,43.2,30.45,NW,321,2.0,2.0,86,0.00,,,0.00,Wunderground v.1.15,2013-04-18 02:50:00,
2013-04-17 19:55:00,47.1,43.1,30.45,NNW,343,1.0,7.0,86,0.00,,,0.00,Wunderground v.1.15,2013-04-18 02:55:00,
2013-04-17 20:05:00,47.2,43.2,30.45,North,355,2.0,3.0,86,0.00,,,0.00,Wunderground v.1.15,2013-04-18 03:05:00,
2013-04-17 20:10:00,47.1,43.1,30.45,NNW,338,1.0,3.0,86,0.00,,,0.00,Wunderground v.1.15,2013-04-18 03:10:00,
2013-04-17 20:20:00,47.2,43.2,30.45,West,279,2.0,3.0,86,0.00,,,0.00,Wunderground v.1.15,2013-04-18 03:20:00,
2013-04-17 20:30:00,47.0,43.0,30.45,NNW,328,1.0,1.0,86,0.00,,,0.00,Wunderground v.1.15,2013-04-18 03:30:00,
2013-04-17 20:40:00,46.9,43.2,30.45,WNW,286,1.0,1.0,87,0.00,,,0.00,Wunderground v.1.15,2013-04-18 03:40:00,
2013-04-17 20:50:00,46.7,43.0,30.46,NNW,336,0.0,1.0,87,0.00,,,0.00,Wunderground v.1.15,2013-04-18 03:50:00,
2013-04-17 21:00:00,46.7,43.3,30.46,WNW,290,0.0,0.0,88,0.00,,,0.00,Wunderground v.1.15,2013-04-18 04:00:00,
2013-04-17 21:05:00,46.7,43.6,30.46,WNW,282,1.0,1.0,89,0.00,,,0.00,Wunderground v.1.15,2013-04-18 04:05:00,
2013-04-17 21:10:00,46.7,43.3,30.46,WNW,290,1.0,1.0,88,0.00,,,0.00,Wunderground v.1.15,2013-04-18 04:10:00,
2013-04-17 21:15:00,46.7,43.3,30.46,West,259,1.0,3.0,88,0.00,,,0.00,Wunderground v.1.15,2013-04-18 04:15:00,
2013-04-17 21:25:00,46.6,43.2,30.46,West,281,1.0,1.0,88,0.00,,,0.00,Wunderground v.1.15,2013-04-18 04:25:00,
2013-04-17 21:30:00,46.5,43.4,30.46,WNW,302,1.0,1.0,89,0.00,,,0.00,Wunderground v.1.15,2013-04-18 04:30:00,
2013-04-17 21:40:00,46.4,43.3,30.47,South,178,0.0,0.0,89,0.00,,,0.00,Wunderground v.1.15,2013-04-18 04:40:00,
2013-04-17 21:50:00,46.3,43.2,30.47,West,272,0.0,0.0,89,0.00,,,0.00,Wunderground v.1.15,2013-04-18 04:50:00,
2013-04-17 22:00:00,46.1,43.3,30.46,NNW,327,1.0,1.0,90,0.00,,,0.00,Wunderground v.1.15,2013-04-18 05:00:00,
2013-04-17 22:05:00,46.0,43.2,30.46,NNW,329,1.0,1.0,90,0.00,,,0.00,Wunderground v.1.15,2013-04-18 05:05:00,
2013-04-17 22:15:00,45.8,43.0,30.46,West,272,1.0,1.0,90,0.00,,,0.00,Wunderground v.1.15,2013-04-18 05:15:00,
2013-04-17 22:25:00,45.5,42.7,30.46,NNW,342,0.0,0.0,90,0.00,,,0.00,Wunderground v.1.15,2013-04-18 05:25:00,
2013-04-17 22:30:00,45.4,42.6,30.46,NNW,342,0.0,0.0,90,0.00,,,0.00,Wunderground v.1.15,2013-04-18 05:30:00,
2013-04-17 22:40:00,45.4,42.9,30.45,NW,320,0.0,0.0,91,0.00,,,0.00,Wunderground v.1.15,2013-04-18 05:40:00,
2013-04-17 22:50:00,45.5,43.0,30.45,NW,320,0.0,0.0,91,0.00,,,0.00,Wunderground v.1.15,2013-04-18 05:50:00,
2013-04-17 23:00:00,45.5,43.0,30.45,NW,320,0.0,0.0,91,0.00,,,0.00,Wunderground v.1.15,2013-04-18 06:00:00,
2013-04-17 23:10:00,45.5,43.3,30.46,ENE,61,0.0,0.0,92,0.00,,,0.00,Wunderground v.1.15,2013-04-18 06:10:00,
2013-04-17 23:20:00,45.4,42.9,30.45,NW,325,0.0,0.0,91,0.00,,,0.00,Wunderground v.1.15,2013-04-18 06:20:00,
2013-04-17 23:30:00,45.2,43.0,30.45,West,266,0.0,3.0,92,0.00,,,0.00,Wunderground v.1.15,2013-04-18 06:30:00,
2013-04-17 23:40:00,45.1,42.9,30.45,WNW,300,0.0,0.0,92,0.00,,,0.00,Wunderground v.1.15,2013-04-18 06:40:00,
2013-04-17 23:50:00,44.9,42.7,30.45,WNW,300,0.0,0.0,92,0.00,,,0.00,Wunderground v.1.15,2013-04-18 06:50:00,